Aérodrome :
LOGIN :

S'inscrire | Disclaimer

   EN    FR    IT 

 










Légende :    VFR   VFR Marginal   IFR   IFR Intensif   IFR Très Intensif
Visi : 
Plafond : 
>= 8 km
>= 3000ft
5 à 8 km
1000 à 3000 ft
1500m à 5 km
500 à 1000 ft
800 à 1500m
200 à 500 ft
< 800m
< 200 ft
Symboles :   Orages  Brouillard  Fortes neiges  Fortes précipitations  Vent > 20 kt
SIGMETs :   Divers  Orages  Givrage  Turbulence  Onde Orograph.  Cendres Volcan.






- Altitude de l'aérodrome : 1017 ft


LFSL - Brive Souillac

DERNIER METAR :
  • 160930Z AUTO 14011KT CAVOK 13/09 Q1004 BECMG 13016G28KT

METARs EXPIRÉS :
  • 160900Z AUTO 14010KT 110V180 9999 NCD 13/08 Q1004 BECMG 13016G28KT
  • 160830Z AUTO 14008KT 110V170 CAVOK 12/08 Q1004 BECMG 13015G25KT
  • 160800Z AUTO 13008KT CAVOK 11/08 Q1004 BECMG 13015G25KT
  • 160730Z AUTO 14009KT 110V170 CAVOK 11/08 Q1005 BECMG 13015G25KT
  • 160700Z AUTO 14008KT 120V180 CAVOK 11/08 Q1005 NOSIG

TAF TAF LFSL
Valide du 16 à 09h jusqu'au 16 à 18h UTC


160800Z 1609/1618 13010KT CAVOK
BECMG 1609/1611 13016G28KT
BECMG 1616/1618 BKN023



MET'MAP, la Météo Aéronautique d'un coup d'oeil ! - Copyright ORBIFLY Décembre 2007 - Disclaimer

ORBIFLY MET'MAP TEAM :

Programmation & Développement : Alexandra Zaïnal
Sur une idée originale de : Baudouin d'Aumeries
Assistance à la programmation : Marc-Olivier Méhu
Soutien technique & logistique : Manuel Goepfert

Contact : metmap@orbifly.com




SOURCES & CREDITS :

   NOAA